Latest Weather Observations for Walpole North

IDW60801

Issued at 12:05 pm WST Tuesday 2 September 2014 (issued every 30 minutes, with the page automatically refreshed every 10 minutes)

About weather observations | Map of weather stations | Latest weather observations for WA | Other Formats
Station Details ID: 009998 Name: NORTH WALPOLE Lat: -34.95 Lon: 116.72 Height: 73.0 m
Data from the previous 72 hours. | See also: Recent months at Walpole North
Date/Time
WST
Temp
°C
App
Temp
°C
Dew
Point
Rel
Hum
%
Delta-T
°C
Wind Press
QNH
hPa
Press
MSL
hPa
Rain
since 9 am
mm
Dir
 
Spd
km/h
Gust
km/h
Spd
kts
Gust
kts
02/12:00pm 15.3 10.8 6.8 57 4.2 NW 20 26 11 14 1015.4 1015.4 0.0
02/11:30am 15.1 13.3 7.2 59 3.9 NW 6 13 3 7 1015.8 1015.8 0.0
02/11:00am 14.9 12.4 8.2 64 3.4 N 11 20 6 11 1015.9 1015.9 0.0
02/10:30am 13.9 11.0 8.1 68 2.9 N 13 20 7 11 1016.0 1016.0 0.0
02/10:00am 12.8 10.9 7.5 70 2.6 N 7 15 4 8 1016.9 1016.9 0.0
02/09:30am 12.1 10.4 7.4 73 2.3 NNW 6 11 3 6 1017.0 1017.0 0.0
02/09:00am 11.3 8.7 6.2 71 2.4 NE 9 13 5 7 1016.9 1016.9 0.0
02/08:30am 11.5 7.3 5.8 68 2.7 N 17 26 9 14 1017.0 1017.0 0.0
02/08:00am 10.7 8.8 6.6 76 1.9 N 6 13 3 7 1017.0 1017.0 0.0
02/07:30am 9.4 8.0 5.6 77 1.7 NNW 2 6 1 3 1016.7 1016.7 0.0
02/07:00am 9.1 8.0 5.3 77 1.7 CALM 0 0 0 0 1017.1 1017.1 0.0
02/06:30am 9.2 8.0 4.8 74 2.0 CALM 0 0 0 0 1017.1 1017.1 0.0
02/06:00am 9.5 8.3 4.7 72 2.1 NNE 0 0 0 0 1016.6 1016.6 0.0
02/05:30am 9.9 8.3 4.5 69 2.4 NNE 2 7 1 4 1017.1 1017.1 0.0
02/05:00am 10.9 7.4 3.7 61 3.2 NNE 11 15 6 8 1017.1 1017.1 0.0
02/04:30am 11.1 6.9 3.6 60 3.3 NNE 15 22 8 12 1017.4 1017.4 0.0
02/04:00am 10.5 6.7 3.8 63 3.0 NNE 13 20 7 11 1017.7 1017.7 0.0
02/03:30am 10.6 6.4 3.6 62 3.1 NNE 15 20 8 11 1018.1 1018.1 0.0
02/03:00am 10.7 6.4 3.5 61 3.2 NNE 15 20 8 11 1018.6 1018.6 0.0
02/02:30am 10.7 5.6 3.3 60 3.2 NNE 19 28 10 15 1018.7 1018.7 0.0
02/02:00am 11.0 6.3 3.3 59 3.4 NNE 17 22 9 12 1019.1 1019.1 0.0
02/01:30am 11.2 7.3 3.3 58 3.5 NNE 13 20 7 11 1019.5 1019.5 0.0
02/01:00am 10.9 7.0 3.5 60 3.3 NNE 13 20 7 11 1019.6 1019.6 0.0
02/12:30am 10.3 6.9 4.2 66 2.7 NNE 11 19 6 10 1020.0 1020.0 0.0
02/12:00am 10.2 6.8 4.1 66 2.7 NNE 11 17 6 9 1020.4 1020.4 0.0
 
Date/Time
WST
Temp
°C
App
Temp
°C
Dew
Point
Rel
Hum
%
Delta-T
°C
Wind Press
QNH
hPa
Press
MSL
hPa
Rain
since 9 am
mm
Dir
 
Spd
km/h
Gust
km/h
Spd
kts
Gust
kts
01/11:30pm 9.2 5.8 4.2 71 2.2 NNE 11 15 6 8 1020.7 1020.7 0.0
01/11:00pm 9.5 6.6 4.9 73 2.1 NNE 9 15 5 8 1021.2 1021.2 0.0
01/10:30pm 8.8 5.9 4.4 74 1.9 NE 9 13 5 7 1021.4 1021.4 0.0
01/10:00pm 8.8 6.2 4.4 74 1.9 NNE 7 11 4 6 1021.9 1021.9 0.0
01/09:30pm 9.3 6.3 4.1 70 2.3 NNE 9 13 5 7 1021.9 1021.9 0.0
01/09:00pm 9.9 7.0 4.9 71 2.2 NNE 9 15 5 8 1022.1 1022.1 0.0
01/08:30pm 10.5 7.3 4.9 68 2.5 NE 11 15 6 8 1021.7 1021.7 0.0
01/08:00pm 10.6 7.6 4.1 64 2.9 NE 9 13 5 7 1022.1 1022.1 0.0
01/07:30pm 11.2 8.2 4.2 62 3.1 NE 9 13 5 7 1022.0 1022.0 0.0
01/07:00pm 12.3 8.9 4.0 57 3.7 NNE 11 15 6 8 1021.9 1021.9 0.0
01/06:30pm 11.7 8.9 5.1 64 3.0 NNE 9 13 5 7 1021.7 1021.7 0.0
01/06:00pm 11.2 10.1 5.3 67 2.7 CALM 0 0 0 0 1021.8 1021.8 0.0
01/05:30pm 13.0 12.0 5.4 60 3.6 CALM 0 0 0 0 1021.5 1021.5 0.0
01/05:00pm 13.9 12.8 6.7 62 3.5 NNW 2 7 1 4 1021.7 1021.7 0.0
01/04:30pm 15.0 11.9 3.8 47 5.1 N 9 15 5 8 1021.7 1021.7 0.0
01/04:00pm 15.8 13.2 4.2 46 5.4 N 7 13 4 7 1021.3 1021.3 0.0
01/03:30pm 15.3 12.1 3.1 44 5.5 NNE 9 15 5 8 1021.1 1021.1 0.0
01/03:00pm 15.5 11.9 2.7 42 5.8 N 11 17 6 9 1021.1 1021.1 0.0
01/02:30pm 16.0 13.4 6.2 52 4.8 NNW 9 13 5 7 1021.5 1021.5 0.0
01/02:00pm 15.3 12.4 4.7 49 5.0 NNE 9 17 5 9 1021.9 1021.9 0.0
01/01:30pm 15.0 12.6 4.1 48 5.0 ENE 6 11 3 6 1022.1 1022.1 0.0
01/01:00pm 15.2 12.9 4.6 49 4.9 NNE 6 15 3 8 1022.7 1022.7 0.0
01/12:30pm 14.6 10.9 4.3 50 4.8 NNW 13 20 7 11 1023.1 1023.1 0.0
01/12:00pm 14.4 11.7 5.5 55 4.2 NE 9 17 5 9 1023.6 1023.6 0.0
01/11:30am 13.4 10.5 4.6 55 4.1 NNE 9 19 5 10 1024.1 1024.1 0.0
01/11:00am 13.2 9.9 4.6 56 3.9 N 11 20 6 11 1024.3 1024.3 0.0
01/10:30am 13.6 11.1 6.5 62 3.4 N 9 15 5 8 1024.4 1024.4 0.0
01/10:00am 12.7 10.6 6.5 66 2.9 N 7 13 4 7 1024.4 1024.4 0.0
01/09:30am 11.9 10.1 8.0 77 1.9 N 7 13 4 7 1024.2 1024.2 0.0
01/09:00am 9.9 9.6 8.7 92 0.6 CALM 0 0 0 0 1024.4 1024.4 0.0
01/08:30am 8.5 7.9 7.6 94 0.4 CALM 0 0 0 0 1024.3 1024.3 0.0
01/08:00am 6.0 4.9 5.3 95 0.3 CALM 0 0 0 0 1024.0 1024.0 0.0
01/07:30am 4.6 3.3 3.9 95 0.3 CALM 0 0 0 0 1023.9 1023.9 0.0
01/07:00am 4.1 2.7 3.4 95 0.3 CALM 0 0 0 0 1023.6 1023.6 0.0
01/06:30am 4.7 3.4 4.0 95 0.3 CALM 0 0 0 0 1023.4 1023.4 0.0
01/06:00am 4.4 3.0 3.7 95 0.3 CALM 0 0 0 0 1023.1 1023.1 0.0
01/05:30am 4.5 3.2 3.9 96 0.3 CALM 0 0 0 0 1022.8 1022.8 0.0
01/05:00am 4.3 2.9 3.6 95 0.3 CALM 0 0 0 0 1022.7 1022.7 0.0
01/04:30am 4.6 3.3 3.9 95 0.3 CALM 0 0 0 0 1022.5 1022.5 0.0
01/04:00am 4.8 3.5 4.1 95 0.3 CALM 0 0 0 0 1022.2 1022.2 0.0
01/03:30am 4.7 3.4 4.0 95 0.3 CALM 0 0 0 0 1022.2 1022.2 0.0
01/03:00am 5.4 4.2 4.7 95 0.3 CALM 0 0 0 0 1022.3 1022.3 0.0
01/02:30am 5.2 4.0 4.5 95 0.3 CALM 0 0 0 0 1022.4 1022.4 0.0
01/02:00am 4.9 3.6 3.9 93 0.4 CALM 0 0 0 0 1022.5 1022.5 0.0
01/01:30am 5.3 4.0 4.1 92 0.5 CALM 0 0 0 0 1022.6 1022.6 0.0
01/01:00am 5.6 4.3 4.2 91 0.6 CALM 0 0 0 0 1022.5 1022.5 0.0
01/12:30am 5.7 4.0 4.2 90 0.6 WSW 2 9 1 5 1022.4 1022.4 0.0
01/12:00am 6.4 5.2 4.7 89 0.7 CALM 0 0 0 0 1022.4 1022.4 0.0
 
Date/Time
WST
Temp
°C
App
Temp
°C
Dew
Point
Rel
Hum
%
Delta-T
°C
Wind Press
QNH
hPa
Press
MSL
hPa
Rain
since 9 am
mm
Dir
 
Spd
km/h
Gust
km/h
Spd
kts
Gust
kts
31/11:30pm 6.7 5.5 4.7 87 0.9 CALM 0 0 0 0 1022.6 1022.6 0.0
31/11:00pm 7.1 5.9 4.6 84 1.1 CALM 0 0 0 0 1022.8 1022.8 0.0
31/10:30pm 7.8 6.7 4.9 82 1.3 CALM 0 0 0 0 1022.9 1022.9 0.0
31/10:00pm 7.9 6.8 5.0 82 1.3 CALM 0 0 0 0 1022.7 1022.7 0.0
31/09:30pm 7.4 6.3 4.9 84 1.1 CALM 0 0 0 0 1022.5 1022.5 0.0
31/09:00pm 8.1 7.0 5.2 82 1.3 CALM 0 0 0 0 1022.1 1022.1 0.0
31/08:30pm 8.1 7.0 4.9 80 1.4 CALM 0 0 0 0 1022.1 1022.1 0.0
31/08:00pm 8.5 7.4 4.9 78 1.6 CALM 0 6 0 3 1022.0 1022.0 0.0
31/07:30pm 8.5 7.3 4.5 76 1.8 CALM 0 0 0 0 1021.8 1021.8 0.0
31/07:00pm 9.1 7.2 4.9 75 1.9 WSW 4 9 2 5 1021.4 1021.4 0.0
31/06:30pm 9.5 8.4 5.1 74 2.0 CALM 0 0 0 0 1021.3 1021.3 0.0
31/06:00pm 10.6 8.2 5.2 69 2.5 SW 7 9 4 5 1021.2 1021.2 0.0
31/05:30pm 11.3 8.2 5.6 68 2.6 SW 11 15 6 8 1020.8 1020.8 0.0
31/05:00pm 13.1 10.1 5.8 61 3.4 SW 11 20 6 11 1020.3 1020.3 0.0
31/04:30pm 12.9 9.4 5.3 60 3.5 SW 13 20 7 11 1020.1 1020.1 0.0
31/04:00pm 13.1 9.7 5.8 61 3.4 SW 13 20 7 11 1019.9 1019.9 0.0
31/03:30pm 13.8 10.7 7.1 64 3.3 SSW 13 24 7 13 1019.3 1019.4 0.0
31/03:00pm 13.3 10.0 6.4 63 3.3 SW 13 28 7 15 1019.2 1019.3 0.0
31/02:30pm 14.1 9.4 6.2 59 3.8 SSW 20 33 11 18 1018.9 1019.0 0.0
31/02:00pm 14.3 9.8 5.9 57 4.0 WSW 19 26 10 14 1018.5 1018.5 0.0
31/01:30pm 13.1 8.6 6.9 66 3.0 SSW 20 32 11 17 1018.4 1018.4 0.0
31/01:00pm 14.2 9.9 7.0 62 3.5 SW 19 30 10 16 1018.2 1018.2 0.0
31/12:30pm 14.1 10.6 7.4 64 3.3 SW 15 28 8 15 1018.4 1018.4 0.0
31/12:00pm 13.9 9.2 7.7 66 3.1 SSW 22 35 12 19 1018.7 1018.8 0.0
31/11:30am 13.2 9.2 6.5 64 3.2 SW 17 28 9 15 1018.8 1018.9 0.0
31/11:00am 13.2 9.6 6.8 65 3.1 SW 15 32 8 17 1018.7 1018.8 0.0
31/10:30am 13.4 10.8 7.8 69 2.8 SW 11 22 6 12 1018.5 1018.5 0.0
31/10:00am 12.9 9.1 7.4 69 2.7 SW 17 24 9 13 1018.7 1018.8 0.0
31/09:30am 12.7 8.3 7.2 69 2.7 WSW 20 26 11 14 1018.7 1018.8 0.0
31/09:00am 12.1 10.4 10.0 87 1.1 WNW 9 15 5 8 1018.6 1018.7 1.2
31/08:30am 10.7 10.6 9.5 92 0.6 CALM 0 0 0 0 1018.5 1018.5 1.2
31/08:00am 10.2 8.0 9.4 95 0.4 NW 11 13 6 7 1018.3 1018.3 1.2
31/07:30am 8.8 6.7 8.4 97 0.2 NW 9 13 5 7 1018.0 1018.0 1.2
31/07:00am 8.5 6.4 8.2 98 0.1 NNW 9 15 5 8 1017.8 1017.8 1.2
31/06:30am 7.9 6.6 7.6 98 0.1 S 4 7 2 4 1017.7 1017.7 0.8
31/06:00am 8.2 5.6 7.8 97 0.2 WNW 11 15 6 8 1017.4 1017.4 0.8
31/05:30am 8.6 5.3 8.2 97 0.2 NNW 15 20 8 11 1016.9 1016.9 0.8
31/05:00am 8.4 5.9 8.0 97 0.2 NW 11 15 6 8 1016.9 1016.9 0.8
31/04:30am 8.4 5.9 8.0 97 0.2 WNW 11 15 6 8 1016.9 1016.9 0.8
31/04:00am 8.6 5.0 8.2 97 0.2 NNW 17 24 9 13 1016.8 1016.8 0.8
31/03:30am 8.3 7.4 7.7 96 0.3 WNW 2 9 1 5 1016.8 1016.8 0.8
31/03:00am 8.8 7.2 8.0 95 0.4 WNW 6 11 3 6 1016.9 1016.9 0.8
31/02:30am 9.0 6.2 8.4 96 0.3 NNW 13 17 7 9 1016.7 1016.7 0.8
31/02:00am 8.9 6.4 8.1 95 0.4 NNW 11 17 6 9 1016.6 1016.6 0.8
31/01:30am 9.2 5.6 8.3 94 0.4 NNW 17 22 9 12 1016.8 1016.8 0.8
31/01:00am 9.4 5.8 8.3 93 0.5 NW 17 20 9 11 1016.7 1016.7 0.8
31/12:30am 9.5 6.3 8.3 92 0.6 NNW 15 17 8 9 1016.7 1016.7 0.4
31/12:00am 9.1 8.6 7.7 91 0.7 CALM 0 9 0 5 1016.7 1016.7 0.2
 
Date/Time
WST
Temp
°C
App
Temp
°C
Dew
Point
Rel
Hum
%
Delta-T
°C
Wind Press
QNH
hPa
Press
MSL
hPa
Rain
since 9 am
mm
Dir
 
Spd
km/h
Gust
km/h
Spd
kts
Gust
kts
30/11:30pm 9.2 8.6 7.3 88 0.9 CALM 0 0 0 0 1016.6 1016.6 0.2
30/11:00pm 9.3 7.5 7.3 87 0.9 WNW 6 13 3 7 1016.8 1016.8 0.2
30/10:30pm 9.7 9.1 7.3 85 1.1 CALM 0 0 0 0 1016.9 1016.9 0.2
30/10:00pm 9.6 8.9 6.9 83 1.3 CALM 0 0 0 0 1017.3 1017.3 0.2
30/09:30pm 9.7 9.0 7.1 84 1.2 CALM 0 0 0 0 1017.2 1017.2 0.2
30/09:00pm 9.9 9.3 7.2 83 1.3 CALM 0 0 0 0 1017.2 1017.2 0.2
30/08:30pm 9.6 8.9 6.9 83 1.3 CALM 0 0 0 0 1017.0 1017.0 0.2
30/08:00pm 9.5 8.7 6.4 81 1.4 CALM 0 0 0 0 1016.9 1016.9 0.2
30/07:30pm 10.0 9.2 6.7 80 1.6 CALM 0 0 0 0 1017.0 1017.0 0.2
30/07:00pm 10.2 9.4 6.7 79 1.6 CALM 0 0 0 0 1016.8 1016.8 0.2
30/06:30pm 10.3 9.5 6.3 76 1.9 CALM 0 0 0 0 1016.6 1016.6 0.2
30/06:00pm 11.0 9.5 6.6 74 2.1 WSW 4 9 2 5 1016.5 1016.5 0.2
30/05:30pm 12.0 9.9 6.5 69 2.6 WSW 7 11 4 6 1016.3 1016.3 0.2
30/05:00pm 12.6 10.2 6.9 68 2.7 WSW 9 15 5 8 1016.1 1016.1 0.2
30/04:30pm 12.8 10.1 7.3 69 2.7 WSW 11 17 6 9 1016.0 1016.0 0.2
30/04:00pm 13.5 10.8 7.3 66 3.0 WSW 11 19 6 10 1015.5 1015.5 0.2
30/03:30pm 13.3 10.2 7.1 66 3.0 SW 13 24 7 13 1015.4 1015.4 0.2
30/03:00pm 13.8 11.2 7.6 66 3.1 WSW 11 20 6 11 1015.1 1015.1 0.2
30/02:30pm 14.1 11.1 7.9 66 3.1 SW 13 19 7 10 1014.9 1014.9 0.2
30/02:00pm 14.7 11.3 7.7 63 3.5 WSW 15 22 8 12 1014.7 1014.7 0.2
30/01:30pm 14.2 10.1 7.9 66 3.1 WSW 19 30 10 16 1014.7 1014.7 0.2
30/01:00pm 14.1 10.4 8.1 67 3.0 WSW 17 24 9 13 1014.9 1014.9 0.2
30/12:30pm 14.3 12.0 8.9 70 2.7 W 11 17 6 9 1014.9 1014.9 0.0

Other Formats:

Comma delimited format used in spreadsheet applications
http://www.bom.gov.au/fwo/IDW60801/IDW60801.95647.axf

JavaScript Object Notation format (JSON) in row-major order
http://www.bom.gov.au/fwo/IDW60801/IDW60801.95647.json